WetterOnline ( https://www.wetteronline.de )

Wetter aktuell Gerstetten

Aktuelles Wetter: Ulm-Mähringen (592m)

6-stündlich | Neueste Meldungen
Ortszeit Temperatur Wetter
Fr, 06.12. 19:00 1.6° C bedeckt
Fr, 06.12. 13:00 1.9° C wolkenlos
Fr, 06.12. 7:00 -2.8° C bedeckt
Fr, 06.12. 1:00 -2.7° C bedeckt
Do, 05.12. 19:00 -2.9° C Nebel
Do, 05.12. 13:00 -2.5° C Nebel
Do, 05.12. 7:00 -4.1° C Nebel
Do, 05.12. 1:00 -3.3° C Nebel
Ortszeit Temperatur Wetter
Fr, 06.12. 19:00 1.6° C bedeckt
Fr, 06.12. 18:50 1.6° C bedeckt
Fr, 06.12. 18:40 1.4° C bedeckt
Fr, 06.12. 18:30 1.6° C bewölkt
Fr, 06.12. 18:20 1.6° C bewölkt
Fr, 06.12. 18:10 1.6° C bewölkt
Fr, 06.12. 18:00 1.7° C wolkig
Fr, 06.12. 17:30 1.7° C wolkig
Fr, 06.12. 17:00 2.6° C wolkig
Fr, 06.12. 16:30 2.8° C leicht bewölkt
Fr, 06.12. 16:00 3.5° C wolkenlos
Ortszeit Relative Feuchte Sichtweite
Fr, 06.12. 19:00 85% 10 km
Fr, 06.12. 13:00 88% 10 km
Fr, 06.12. 7:00 96% 3.4 km
Fr, 06.12. 1:00 97% 3.9 km
Do, 05.12. 19:00 98% 0.4 km
Do, 05.12. 13:00 98% 0.2 km
Do, 05.12. 7:00 97% 0.8 km
Do, 05.12. 1:00 97% 0.4 km
Ortszeit Relative Feuchte Sichtweite
Fr, 06.12. 19:00 85% 10 km
Fr, 06.12. 18:50 85% -
Fr, 06.12. 18:40 86% -
Fr, 06.12. 18:30 85% 10 km
Fr, 06.12. 18:20 85% -
Fr, 06.12. 18:10 85% -
Fr, 06.12. 18:00 85% 11 km
Fr, 06.12. 17:30 85% 12 km
Fr, 06.12. 17:00 81% 14 km
Fr, 06.12. 16:30 80% 15 km
Fr, 06.12. 16:00 78% 16 km
Ortszeit Niederschlagsmenge Niederschlagsart
Fr, 06.12. 19:00 0.0 l/m2 in 12 Std. -
Fr, 06.12. 13:00 0.0 l/m2 in 6 Std. -
Fr, 06.12. 7:00 0.0 l/m2 in 12 Std. -
Fr, 06.12. 1:00 0.0 l/m2 in 6 Std. -
Do, 05.12. 19:00 0.1 l/m2 in 12 Std. -
Do, 05.12. 13:00 0.1 l/m2 in 6 Std. Schnee
Do, 05.12. 7:00 0.0 l/m2 in 12 Std. -
Do, 05.12. 1:00 0.0 l/m2 in 6 Std. -
Ortszeit Niederschlagsmenge Niederschlagsart
Fr, 06.12. 19:00 0.0 l/m2 in 1 Std. -
Fr, 06.12. 18:50 keine Meldung -
Fr, 06.12. 18:40 keine Meldung -
Fr, 06.12. 18:30 0.0 l/m2 in 1 Std. -
Fr, 06.12. 18:20 keine Meldung -
Fr, 06.12. 18:10 keine Meldung -
Fr, 06.12. 18:00 0.0 l/m2 in 1 Std. -
Fr, 06.12. 17:30 0.0 l/m2 in 1 Std. -
Fr, 06.12. 17:00 0.0 l/m2 in 1 Std. -
Fr, 06.12. 16:30 0.0 l/m2 in 1 Std. -
Fr, 06.12. 16:00 0.0 l/m2 in 1 Std. -
Ortszeit Stärke Spitze Richtung
km/h Bft. km/h Grad Sektor
Fr, 06.12. 19:00 11 2 28 220° SW
Fr, 06.12. 13:00 11 2 18 210° SW
Fr, 06.12. 7:00 9 2 15 230° SW
Fr, 06.12. 1:00 7 2 18 240° SW
Do, 05.12. 19:00 6 1 11 240° SW
Do, 05.12. 13:00 7 2 11 210° SW
Do, 05.12. 7:00 7 2 18 220° SW
Do, 05.12. 1:00 9 2 15 220° SW
Ortszeit Stärke Spitze Richtung
km/h Bft. km/h Grad Sektor
Fr, 06.12. 19:00 11 2 17 220° SW
Fr, 06.12. 18:50 11 2 - 220° SW
Fr, 06.12. 18:40 9 2 - 240° SW
Fr, 06.12. 18:30 9 2 17 230° SW
Fr, 06.12. 18:20 9 2 - 230° SW
Fr, 06.12. 18:10 11 2 - 230° SW
Fr, 06.12. 18:00 11 2 22 230° SW
Fr, 06.12. 17:30 9 2 20 230° SW
Fr, 06.12. 17:00 13 3 20 220° SW
Fr, 06.12. 16:30 14 3 22 220° SW
Fr, 06.12. 16:00 13 3 28 220° SW
Ortszeit Untergrenze Bedeckung Gattung
total tief tief mittel hoch
Fr, 06.12. 19:00 6600 m 8/8 8/8 - - -
Fr, 06.12. 13:00 - 0/8 0/8 - - -
Fr, 06.12. 7:00 60 m 8/8 8/8 - - -
Fr, 06.12. 1:00 60 m 8/8 8/8 - - -
Do, 05.12. 19:00 <30 m 8/8 0/8 - - -
Do, 05.12. 13:00 <30 m 8/8 0/8 - - -
Do, 05.12. 7:00 30 m 8/8 8/8 - - -
Do, 05.12. 1:00 <30 m 8/8 0/8 - - -
Ortszeit Bedeckungsgrad in Achtel und Wolkenuntergrenze
Fr, 06.12. 19:00 8(6600m) 8(7800m)
Fr, 06.12. 18:50 8(6600m) 8(7800m)
Fr, 06.12. 18:40 8(6900m)
Fr, 06.12. 18:30 7(6900m) 8(7800m) 8(8700m)
Fr, 06.12. 18:20 7(6900m) 8(7800m) 8(8700m)
Fr, 06.12. 18:10 5(6900m) 8(7800m) 8(8700m)
Fr, 06.12. 18:00 8(7800m) 8(8700m) 8(9000m)
Fr, 06.12. 17:30 8(7800m) 8(8700m) 8(9000m)
Fr, 06.12. 17:00 5(8100m) 7(8700m) 8(9000m)
Fr, 06.12. 16:30 6(9000m) 7(9000m)
Fr, 06.12. 16:00 keine Wolken
Ortszeit Luftdruck NN (hPa) Tendenz (hPa in 3 Std.)
Fr, 06.12. 19:00 1018 - 0,5
Fr, 06.12. 13:00 1021 - 1,8
Fr, 06.12. 7:00 1024 - 0,2
Fr, 06.12. 1:00 1025 - 1,0
Do, 05.12. 19:00 1026 + 0,8
Do, 05.12. 13:00 1025 - 0,2
Do, 05.12. 7:00 1025 + 0,6
Do, 05.12. 1:00 1023 - 0,2
Ortszeit Luftdruck NN (hPa) Tendenz (hPa in 3 Std.)
Fr, 06.12. 19:00 1018 - 0,5
Fr, 06.12. 18:50 1018 keine Meldung
Fr, 06.12. 18:40 1018 keine Meldung
Fr, 06.12. 18:30 1018 - 0,8
Fr, 06.12. 18:20 1018 keine Meldung
Fr, 06.12. 18:10 1018 keine Meldung
Fr, 06.12. 18:00 1018 - 0,6
Fr, 06.12. 17:30 1018 - 0,9
Fr, 06.12. 17:00 1018 - 1,2
Fr, 06.12. 16:30 1018 - 1,6
Fr, 06.12. 16:00 1018 - 1,8
Ortszeit Schneehöhe (cm)
Fr, 06.12. 19:00 -
Fr, 06.12. 13:00 -
Fr, 06.12. 7:00 1
Fr, 06.12. 1:00 1
Do, 05.12. 19:00 1
Do, 05.12. 13:00 1
Do, 05.12. 7:00 1
Do, 05.12. 1:00 1
Ortszeit Schneehöhe (cm)
Fr, 06.12. 19:00 -
Fr, 06.12. 18:50 -
Fr, 06.12. 18:40 -
Fr, 06.12. 18:30 -
Fr, 06.12. 18:20 -
Fr, 06.12. 18:10 -
Fr, 06.12. 18:00 -
Fr, 06.12. 17:30 -
Fr, 06.12. 17:00 -
Fr, 06.12. 16:30 -
Fr, 06.12. 16:00 -
Link zu dieser Seite / Seite empfehlen

Das Wetter in ...